Beerburrum Forest Station, Queensland

2:41 AM AEST on February 12, 2016 (GMT +1000)
Sunrock | | Change Station
CLOSE
Current Station
Personal Weather Station
Location: Glass House Mountains, QUEENSLAND
Elevation: 95 ft
Nearby Weather Stations

Elev 95 ft 26.93 °S, 152.96 °E | Updated 17 minutes ago

Partly Cloudy
Partly Cloudy
71.6 °F
Feels Like 70 °F
N
1.0
Wind Variable Wind from SSE
Gusts 3.0 mph

Today
High -- | Low -- °F
--% Chance of Precip.
Yesterday
High -- | Low -- °F
Precip. -- in
Pressure 29.89 in
Visibility 6.2 miles
Clouds Few 2400 ft
Heat Index 70 °F
Dew Point 67 °F
Humidity 86%
Rainfall 0.00 in
Snow Depth Not available.
5:29 AM 6:35 PM
Waxing Crescent, 13% visible
METAR YBBN 111630Z 20006KT 9999 FEW024 22/18 Q1012
Pressure 29.89 in
Visibility 6.2 miles
Clouds Few 2400 ft
Heat Index 70 °F
Dew Point 67 °F
Humidity 86%
Rainfall 0.00 in
Snow Depth Not available.
5:29 AM 6:35 PM
Waxing Crescent, 13% visible
METAR YBBN 111630Z 20006KT 9999 FEW024 22/18 Q1012

10-Day Weather Forecast

Almanac

Astronomy

Feb. 12, 2016 Rise Set
Actual Time
Civil Twilight
Nautical Twilight
Astronomical Twilight
Moon
Length of Visible Light
Length of Day
Tomorrow will be .
, % of the Moon is Illuminated

Today's Extremes

Country Highs Country Lows

Community

WunderPhotos

Upload Photos

1,892,097 photos uploaded!

WunderBlog® & News

Nearby

Air Quality

  Air Quality AQ Index Pollutant
Not available.

Snow Depth

Station Depth Elevation

Earthquake Activity

City Distance Mag. Time & Date
Minimum magnitude displayed is 2.5.

Coastal Water Temperatures

Place Temperature

Stations

Nearby Weather Stations

Station Location Temp. Windchill Dew Point Humidity Wind Precip. Elev Updated Type